sensor_id;sensor_type;location;lat;lon;timestamp;P1;durP1;ratioP1;P2;durP2;ratioP2
66603;SDS011;53460;39.612;8.822;2023-03-17T00:01:40;2.88;;;1.15;;
66603;SDS011;53460;39.612;8.822;2023-03-17T00:04:09;2.55;;;0.80;;
66603;SDS011;53460;39.612;8.822;2023-03-17T00:06:35;1.15;;;0.80;;
66603;SDS011;53460;39.612;8.822;2023-03-17T00:09:01;1.35;;;0.90;;
66603;SDS011;53460;39.612;8.822;2023-03-17T00:11:27;1.80;;;1.30;;
66603;SDS011;53460;39.612;8.822;2023-03-17T00:13:52;1.10;;;0.77;;
66603;SDS011;53460;39.612;8.822;2023-03-17T00:16:22;1.30;;;0.75;;
66603;SDS011;53460;39.612;8.822;2023-03-17T00:18:48;2.25;;;0.93;;
66603;SDS011;53460;39.612;8.822;2023-03-17T00:21:28;2.42;;;0.90;;
66603;SDS011;53460;39.612;8.822;2023-03-17T00:23:54;0.68;;;0.68;;
66603;SDS011;53460;39.612;8.822;2023-03-17T00:26:20;0.63;;;0.60;;
66603;SDS011;53460;39.612;8.822;2023-03-17T00:28:46;1.45;;;0.98;;
66603;SDS011;53460;39.612;8.822;2023-03-17T00:31:19;1.02;;;0.70;;
66603;SDS011;53460;39.612;8.822;2023-03-17T00:33:46;1.10;;;0.80;;
66603;SDS011;53460;39.612;8.822;2023-03-17T00:36:14;1.30;;;0.80;;
66603;SDS011;53460;39.612;8.822;2023-03-17T00:38:40;3.45;;;1.48;;
66603;SDS011;53460;39.612;8.822;2023-03-17T00:41:07;3.88;;;2.17;;
66603;SDS011;53460;39.612;8.822;2023-03-17T00:43:33;1.90;;;1.80;;
66603;SDS011;53460;39.612;8.822;2023-03-17T00:45:58;5.82;;;1.50;;
66603;SDS011;53460;39.612;8.822;2023-03-17T00:48:25;1.55;;;1.35;;
66603;SDS011;53460;39.612;8.822;2023-03-17T00:50:51;2.53;;;1.10;;
66603;SDS011;53460;39.612;8.822;2023-03-17T00:53:17;1.65;;;0.90;;
66603;SDS011;53460;39.612;8.822;2023-03-17T00:55:44;0.95;;;0.80;;
66603;SDS011;53460;39.612;8.822;2023-03-17T00:58:13;1.98;;;1.20;;
66603;SDS011;53460;39.612;8.822;2023-03-17T01:00:39;1.67;;;1.05;;
66603;SDS011;53460;39.612;8.822;2023-03-17T01:03:08;1.10;;;0.70;;
66603;SDS011;53460;39.612;8.822;2023-03-17T01:05:35;2.03;;;0.90;;
66603;SDS011;53460;39.612;8.822;2023-03-17T01:08:02;2.60;;;0.88;;
66603;SDS011;53460;39.612;8.822;2023-03-17T01:10:27;2.90;;;0.90;;
66603;SDS011;53460;39.612;8.822;2023-03-17T01:12:54;2.45;;;0.95;;
66603;SDS011;53460;39.612;8.822;2023-03-17T01:15:20;1.17;;;0.80;;
66603;SDS011;53460;39.612;8.822;2023-03-17T01:17:46;1.05;;;0.90;;
66603;SDS011;53460;39.612;8.822;2023-03-17T01:20:16;1.38;;;0.93;;
66603;SDS011;53460;39.612;8.822;2023-03-17T01:22:42;2.15;;;1.55;;
66603;SDS011;53460;39.612;8.822;2023-03-17T01:25:09;1.15;;;0.80;;
66603;SDS011;53460;39.612;8.822;2023-03-17T01:27:35;1.70;;;0.88;;
66603;SDS011;53460;39.612;8.822;2023-03-17T01:30:03;1.75;;;0.93;;
66603;SDS011;53460;39.612;8.822;2023-03-17T01:32:28;2.47;;;1.45;;
66603;SDS011;53460;39.612;8.822;2023-03-17T01:34:54;2.53;;;0.80;;
66603;SDS011;53460;39.612;8.822;2023-03-17T01:37:19;2.05;;;0.82;;
66603;SDS011;53460;39.612;8.822;2023-03-17T01:39:45;1.83;;;0.70;;
66603;SDS011;53460;39.612;8.822;2023-03-17T01:42:11;1.33;;;1.05;;
66603;SDS011;53460;39.612;8.822;2023-03-17T01:47:22;1.15;;;0.90;;
66603;SDS011;53460;39.612;8.822;2023-03-17T01:49:50;5.85;;;0.90;;
66603;SDS011;53460;39.612;8.822;2023-03-17T01:52:17;1.13;;;0.60;;
66603;SDS011;53460;39.612;8.822;2023-03-17T01:54:46;1.02;;;0.73;;
66603;SDS011;53460;39.612;8.822;2023-03-17T01:59:39;1.10;;;0.80;;
66603;SDS011;53460;39.612;8.822;2023-03-17T02:02:07;1.75;;;0.93;;
66603;SDS011;53460;39.612;8.822;2023-03-17T02:04:34;1.58;;;0.70;;
66603;SDS011;53460;39.612;8.822;2023-03-17T02:07:01;1.90;;;1.40;;
66603;SDS011;53460;39.612;8.822;2023-03-17T02:09:28;6.05;;;4.43;;
66603;SDS011;53460;39.612;8.822;2023-03-17T02:11:54;4.97;;;4.00;;
66603;SDS011;53460;39.612;8.822;2023-03-17T02:14:20;3.20;;;1.98;;
66603;SDS011;53460;39.612;8.822;2023-03-17T02:16:45;1.02;;;0.73;;
66603;SDS011;53460;39.612;8.822;2023-03-17T02:19:15;2.15;;;1.40;;
66603;SDS011;53460;39.612;8.822;2023-03-17T02:21:41;4.15;;;2.03;;
66603;SDS011;53460;39.612;8.822;2023-03-17T02:24:09;2.65;;;1.63;;
66603;SDS011;53460;39.612;8.822;2023-03-17T02:26:36;0.70;;;0.70;;
66603;SDS011;53460;39.612;8.822;2023-03-17T02:29:03;0.75;;;0.73;;
66603;SDS011;53460;39.612;8.822;2023-03-17T02:31:29;1.60;;;0.93;;
66603;SDS011;53460;39.612;8.822;2023-03-17T02:33:55;1.05;;;0.80;;
66603;SDS011;53460;39.612;8.822;2023-03-17T02:36:20;2.10;;;0.85;;
66603;SDS011;53460;39.612;8.822;2023-03-17T02:38:46;1.65;;;0.90;;
66603;SDS011;53460;39.612;8.822;2023-03-17T02:41:12;3.25;;;0.85;;
66603;SDS011;53460;39.612;8.822;2023-03-17T02:43:37;1.15;;;0.75;;
66603;SDS011;53460;39.612;8.822;2023-03-17T02:46:03;2.65;;;0.75;;
66603;SDS011;53460;39.612;8.822;2023-03-17T02:48:30;1.55;;;0.70;;
66603;SDS011;53460;39.612;8.822;2023-03-17T02:50:56;3.58;;;0.77;;
66603;SDS011;53460;39.612;8.822;2023-03-17T02:53:21;1.05;;;0.90;;
66603;SDS011;53460;39.612;8.822;2023-03-17T02:55:47;0.93;;;0.80;;
66603;SDS011;53460;39.612;8.822;2023-03-17T02:58:12;0.60;;;0.60;;
66603;SDS011;53460;39.612;8.822;2023-03-17T03:00:38;1.27;;;0.80;;
66603;SDS011;53460;39.612;8.822;2023-03-17T03:03:04;2.00;;;0.77;;
66603;SDS011;53460;39.612;8.822;2023-03-17T03:05:30;0.52;;;0.52;;
66603;SDS011;53460;39.612;8.822;2023-03-17T03:07:56;1.85;;;0.70;;
66603;SDS011;53460;39.612;8.822;2023-03-17T03:10:21;1.30;;;0.60;;
66603;SDS011;53460;39.612;8.822;2023-03-17T03:12:47;0.57;;;0.57;;
66603;SDS011;53460;39.612;8.822;2023-03-17T03:15:12;1.50;;;0.98;;
66603;SDS011;53460;39.612;8.822;2023-03-17T03:17:38;0.80;;;0.80;;
66603;SDS011;53460;39.612;8.822;2023-03-17T03:20:04;1.45;;;0.70;;
66603;SDS011;53460;39.612;8.822;2023-03-17T03:22:29;1.58;;;0.82;;
66603;SDS011;53460;39.612;8.822;2023-03-17T03:24:55;3.10;;;1.23;;
66603;SDS011;53460;39.612;8.822;2023-03-17T03:27:20;4.35;;;0.88;;
66603;SDS011;53460;39.612;8.822;2023-03-17T03:29:46;1.63;;;0.85;;
66603;SDS011;53460;39.612;8.822;2023-03-17T03:32:11;1.38;;;0.82;;
66603;SDS011;53460;39.612;8.822;2023-03-17T03:34:37;4.70;;;0.52;;
66603;SDS011;53460;39.612;8.822;2023-03-17T03:37:02;0.77;;;0.60;;
66603;SDS011;53460;39.612;8.822;2023-03-17T03:39:28;0.88;;;0.60;;
66603;SDS011;53460;39.612;8.822;2023-03-17T03:41:53;0.70;;;0.50;;
66603;SDS011;53460;39.612;8.822;2023-03-17T03:44:22;0.95;;;0.75;;
66603;SDS011;53460;39.612;8.822;2023-03-17T03:46:48;2.88;;;0.75;;
66603;SDS011;53460;39.612;8.822;2023-03-17T03:49:13;2.22;;;0.73;;
66603;SDS011;53460;39.612;8.822;2023-03-17T03:51:39;1.08;;;0.70;;
66603;SDS011;53460;39.612;8.822;2023-03-17T03:54:04;1.13;;;0.95;;
66603;SDS011;53460;39.612;8.822;2023-03-17T03:56:30;1.42;;;0.82;;
66603;SDS011;53460;39.612;8.822;2023-03-17T03:58:55;1.63;;;0.73;;
66603;SDS011;53460;39.612;8.822;2023-03-17T04:01:21;1.58;;;0.82;;
66603;SDS011;53460;39.612;8.822;2023-03-17T04:03:47;0.88;;;0.68;;
66603;SDS011;53460;39.612;8.822;2023-03-17T04:06:12;1.20;;;0.80;;
66603;SDS011;53460;39.612;8.822;2023-03-17T04:08:38;0.65;;;0.50;;
66603;SDS011;53460;39.612;8.822;2023-03-17T04:11:03;1.92;;;0.80;;
66603;SDS011;53460;39.612;8.822;2023-03-17T04:13:29;0.75;;;0.50;;
66603;SDS011;53460;39.612;8.822;2023-03-17T04:15:54;3.17;;;0.95;;
66603;SDS011;53460;39.612;8.822;2023-03-17T04:18:20;1.58;;;0.80;;
66603;SDS011;53460;39.612;8.822;2023-03-17T04:20:46;1.58;;;0.80;;
66603;SDS011;53460;39.612;8.822;2023-03-17T04:23:11;1.25;;;0.77;;
66603;SDS011;53460;39.612;8.822;2023-03-17T04:25:37;1.20;;;0.75;;
66603;SDS011;53460;39.612;8.822;2023-03-17T04:28:03;2.08;;;0.88;;
66603;SDS011;53460;39.612;8.822;2023-03-17T04:30:28;0.95;;;0.70;;
66603;SDS011;53460;39.612;8.822;2023-03-17T04:32:54;2.30;;;0.80;;
66603;SDS011;53460;39.612;8.822;2023-03-17T04:35:20;0.73;;;0.68;;
66603;SDS011;53460;39.612;8.822;2023-03-17T04:37:46;1.50;;;0.80;;
66603;SDS011;53460;39.612;8.822;2023-03-17T04:40:13;1.05;;;0.50;;
66603;SDS011;53460;39.612;8.822;2023-03-17T04:42:39;3.75;;;1.15;;
66603;SDS011;53460;39.612;8.822;2023-03-17T04:45:04;0.90;;;0.60;;
66603;SDS011;53460;39.612;8.822;2023-03-17T04:47:30;1.40;;;0.70;;
66603;SDS011;53460;39.612;8.822;2023-03-17T04:49:56;1.58;;;0.80;;
66603;SDS011;53460;39.612;8.822;2023-03-17T04:52:22;1.25;;;0.65;;
66603;SDS011;53460;39.612;8.822;2023-03-17T04:54:47;1.50;;;0.80;;
66603;SDS011;53460;39.612;8.822;2023-03-17T04:57:13;1.13;;;0.85;;
66603;SDS011;53460;39.612;8.822;2023-03-17T04:59:38;1.27;;;0.80;;
66603;SDS011;53460;39.612;8.822;2023-03-17T05:02:04;1.73;;;0.60;;
66603;SDS011;53460;39.612;8.822;2023-03-17T05:04:29;2.92;;;0.80;;
66603;SDS011;53460;39.612;8.822;2023-03-17T05:06:55;0.82;;;0.80;;
66603;SDS011;53460;39.612;8.822;2023-03-17T05:09:22;1.00;;;0.85;;
66603;SDS011;53460;39.612;8.822;2023-03-17T05:11:48;0.82;;;0.60;;
66603;SDS011;53460;39.612;8.822;2023-03-17T05:14:13;1.38;;;0.70;;
66603;SDS011;53460;39.612;8.822;2023-03-17T05:16:39;0.93;;;0.70;;
66603;SDS011;53460;39.612;8.822;2023-03-17T05:19:05;1.45;;;0.68;;
66603;SDS011;53460;39.612;8.822;2023-03-17T05:21:31;0.80;;;0.60;;
66603;SDS011;53460;39.612;8.822;2023-03-17T05:23:56;1.48;;;0.70;;
66603;SDS011;53460;39.612;8.822;2023-03-17T05:26:22;0.55;;;0.55;;
66603;SDS011;53460;39.612;8.822;2023-03-17T05:28:47;0.68;;;0.55;;
66603;SDS011;53460;39.612;8.822;2023-03-17T05:31:13;1.67;;;0.80;;
66603;SDS011;53460;39.612;8.822;2023-03-17T05:33:38;1.80;;;0.80;;
66603;SDS011;53460;39.612;8.822;2023-03-17T05:36:04;2.47;;;0.80;;
66603;SDS011;53460;39.612;8.822;2023-03-17T05:38:29;1.90;;;0.80;;
66603;SDS011;53460;39.612;8.822;2023-03-17T05:40:55;0.63;;;0.60;;
66603;SDS011;53460;39.612;8.822;2023-03-17T05:43:21;2.17;;;0.73;;
66603;SDS011;53460;39.612;8.822;2023-03-17T05:45:46;1.83;;;0.80;;
66603;SDS011;53460;39.612;8.822;2023-03-17T05:48:14;1.02;;;0.70;;
66603;SDS011;53460;39.612;8.822;2023-03-17T05:50:39;3.13;;;0.65;;
66603;SDS011;53460;39.612;8.822;2023-03-17T05:53:05;3.83;;;1.10;;
66603;SDS011;53460;39.612;8.822;2023-03-17T05:55:31;0.75;;;0.70;;
66603;SDS011;53460;39.612;8.822;2023-03-17T05:57:56;2.35;;;0.90;;
66603;SDS011;53460;39.612;8.822;2023-03-17T06:00:22;1.60;;;1.20;;
66603;SDS011;53460;39.612;8.822;2023-03-17T06:02:47;2.45;;;1.20;;
66603;SDS011;53460;39.612;8.822;2023-03-17T06:05:13;2.63;;;1.95;;
66603;SDS011;53460;39.612;8.822;2023-03-17T06:07:38;3.97;;;2.15;;
66603;SDS011;53460;39.612;8.822;2023-03-17T06:10:06;5.05;;;3.35;;
66603;SDS011;53460;39.612;8.822;2023-03-17T06:12:31;3.33;;;2.78;;
66603;SDS011;53460;39.612;8.822;2023-03-17T06:14:57;3.78;;;2.10;;
66603;SDS011;53460;39.612;8.822;2023-03-17T06:17:22;3.42;;;1.60;;
66603;SDS011;53460;39.612;8.822;2023-03-17T06:19:48;2.70;;;1.35;;
66603;SDS011;53460;39.612;8.822;2023-03-17T06:22:13;2.75;;;1.35;;
66603;SDS011;53460;39.612;8.822;2023-03-17T06:24:39;2.95;;;1.90;;
66603;SDS011;53460;39.612;8.822;2023-03-17T06:27:05;3.75;;;1.52;;
66603;SDS011;53460;39.612;8.822;2023-03-17T06:29:30;1.92;;;1.52;;
66603;SDS011;53460;39.612;8.822;2023-03-17T06:31:56;1.80;;;1.42;;
66603;SDS011;53460;39.612;8.822;2023-03-17T06:34:22;3.78;;;1.50;;
66603;SDS011;53460;39.612;8.822;2023-03-17T06:36:48;3.92;;;2.83;;
66603;SDS011;53460;39.612;8.822;2023-03-17T06:39:14;2.85;;;1.80;;
66603;SDS011;53460;39.612;8.822;2023-03-17T06:41:40;6.13;;;3.53;;
66603;SDS011;53460;39.612;8.822;2023-03-17T06:44:06;4.60;;;3.60;;
66603;SDS011;53460;39.612;8.822;2023-03-17T06:46:33;10.20;;;6.45;;
66603;SDS011;53460;39.612;8.822;2023-03-17T06:48:58;6.68;;;4.05;;
66603;SDS011;53460;39.612;8.822;2023-03-17T06:51:24;8.35;;;3.42;;
66603;SDS011;53460;39.612;8.822;2023-03-17T06:53:49;4.22;;;2.72;;
66603;SDS011;53460;39.612;8.822;2023-03-17T06:56:15;5.00;;;1.92;;
66603;SDS011;53460;39.612;8.822;2023-03-17T06:58:40;5.90;;;2.42;;
66603;SDS011;53460;39.612;8.822;2023-03-17T07:01:06;3.10;;;1.55;;
66603;SDS011;53460;39.612;8.822;2023-03-17T07:03:32;4.00;;;1.60;;
66603;SDS011;53460;39.612;8.822;2023-03-17T07:05:58;2.60;;;1.92;;
66603;SDS011;53460;39.612;8.822;2023-03-17T07:08:25;3.65;;;2.00;;
66603;SDS011;53460;39.612;8.822;2023-03-17T07:10:53;3.80;;;1.70;;
66603;SDS011;53460;39.612;8.822;2023-03-17T07:13:20;2.17;;;1.23;;
66603;SDS011;53460;39.612;8.822;2023-03-17T07:15:47;4.43;;;1.25;;
66603;SDS011;53460;39.612;8.822;2023-03-17T07:18:12;3.35;;;1.10;;
66603;SDS011;53460;39.612;8.822;2023-03-17T07:20:38;1.10;;;0.93;;
66603;SDS011;53460;39.612;8.822;2023-03-17T07:23:04;2.17;;;0.80;;
66603;SDS011;53460;39.612;8.822;2023-03-17T07:25:30;1.52;;;1.10;;
66603;SDS011;53460;39.612;8.822;2023-03-17T07:27:55;2.72;;;1.50;;
66603;SDS011;53460;39.612;8.822;2023-03-17T07:30:21;3.30;;;1.42;;
66603;SDS011;53460;39.612;8.822;2023-03-17T07:32:46;3.53;;;0.98;;
66603;SDS011;53460;39.612;8.822;2023-03-17T07:35:12;2.17;;;1.10;;
66603;SDS011;53460;39.612;8.822;2023-03-17T07:37:39;0.90;;;0.65;;
66603;SDS011;53460;39.612;8.822;2023-03-17T07:40:06;3.10;;;0.90;;
66603;SDS011;53460;39.612;8.822;2023-03-17T07:42:33;3.03;;;1.92;;
66603;SDS011;53460;39.612;8.822;2023-03-17T07:44:58;4.05;;;0.95;;
66603;SDS011;53460;39.612;8.822;2023-03-17T07:47:24;3.53;;;0.85;;
66603;SDS011;53460;39.612;8.822;2023-03-17T07:49:50;1.23;;;0.68;;
66603;SDS011;53460;39.612;8.822;2023-03-17T07:52:16;1.50;;;0.80;;
66603;SDS011;53460;39.612;8.822;2023-03-17T07:54:42;2.38;;;0.80;;
66603;SDS011;53460;39.612;8.822;2023-03-17T07:57:07;1.40;;;0.75;;
66603;SDS011;53460;39.612;8.822;2023-03-17T07:59:33;1.77;;;0.88;;
66603;SDS011;53460;39.612;8.822;2023-03-17T08:01:58;2.53;;;1.58;;
66603;SDS011;53460;39.612;8.822;2023-03-17T08:04:25;1.73;;;0.90;;
66603;SDS011;53460;39.612;8.822;2023-03-17T08:06:51;2.00;;;0.93;;
66603;SDS011;53460;39.612;8.822;2023-03-17T08:09:18;2.65;;;0.95;;
66603;SDS011;53460;39.612;8.822;2023-03-17T08:11:45;2.03;;;0.98;;
66603;SDS011;53460;39.612;8.822;2023-03-17T08:14:11;1.45;;;1.13;;
66603;SDS011;53460;39.612;8.822;2023-03-17T08:16:37;2.42;;;1.90;;
66603;SDS011;53460;39.612;8.822;2023-03-17T08:19:02;2.50;;;1.23;;
66603;SDS011;53460;39.612;8.822;2023-03-17T08:21:28;2.25;;;1.10;;
66603;SDS011;53460;39.612;8.822;2023-03-17T08:23:54;1.75;;;1.10;;
66603;SDS011;53460;39.612;8.822;2023-03-17T08:26:21;2.08;;;1.13;;
66603;SDS011;53460;39.612;8.822;2023-03-17T08:28:47;2.10;;;0.80;;
66603;SDS011;53460;39.612;8.822;2023-03-17T08:31:14;3.10;;;1.17;;
66603;SDS011;53460;39.612;8.822;2023-03-17T08:33:41;1.83;;;0.70;;
66603;SDS011;53460;39.612;8.822;2023-03-17T08:36:07;3.60;;;1.10;;
66603;SDS011;53460;39.612;8.822;2023-03-17T08:38:34;2.05;;;1.38;;
66603;SDS011;53460;39.612;8.822;2023-03-17T08:41:03;4.20;;;0.90;;
66603;SDS011;53460;39.612;8.822;2023-03-17T08:43:31;3.55;;;1.73;;
66603;SDS011;53460;39.612;8.822;2023-03-17T08:46:01;3.38;;;1.15;;
66603;SDS011;53460;39.612;8.822;2023-03-17T08:48:27;1.60;;;1.17;;
66603;SDS011;53460;39.612;8.822;2023-03-17T08:50:54;1.75;;;1.08;;
66603;SDS011;53460;39.612;8.822;2023-03-17T08:53:20;5.13;;;1.17;;
66603;SDS011;53460;39.612;8.822;2023-03-17T08:55:46;3.30;;;1.35;;
66603;SDS011;53460;39.612;8.822;2023-03-17T08:58:11;4.35;;;1.88;;
66603;SDS011;53460;39.612;8.822;2023-03-17T09:00:37;3.28;;;1.90;;
66603;SDS011;53460;39.612;8.822;2023-03-17T09:03:02;2.13;;;1.52;;
66603;SDS011;53460;39.612;8.822;2023-03-17T09:05:29;2.65;;;1.40;;
66603;SDS011;53460;39.612;8.822;2023-03-17T09:07:55;2.53;;;1.38;;
66603;SDS011;53460;39.612;8.822;2023-03-17T09:10:21;4.65;;;0.95;;
66603;SDS011;53460;39.612;8.822;2023-03-17T09:12:48;2.45;;;1.15;;
66603;SDS011;53460;39.612;8.822;2023-03-17T09:15:13;1.45;;;1.00;;
66603;SDS011;53460;39.612;8.822;2023-03-17T09:17:39;1.50;;;1.00;;
66603;SDS011;53460;39.612;8.822;2023-03-17T09:20:07;4.18;;;1.05;;
66603;SDS011;53460;39.612;8.822;2023-03-17T09:22:33;1.63;;;0.80;;
66603;SDS011;53460;39.612;8.822;2023-03-17T09:24:58;3.53;;;1.30;;
66603;SDS011;53460;39.612;8.822;2023-03-17T09:27:24;2.33;;;0.82;;
66603;SDS011;53460;39.612;8.822;2023-03-17T09:29:50;1.63;;;1.00;;
66603;SDS011;53460;39.612;8.822;2023-03-17T09:32:16;4.35;;;1.42;;
66603;SDS011;53460;39.612;8.822;2023-03-17T09:34:42;3.22;;;0.82;;
66603;SDS011;53460;39.612;8.822;2023-03-17T09:37:07;2.97;;;1.40;;
66603;SDS011;53460;39.612;8.822;2023-03-17T09:39:34;1.85;;;1.08;;
66603;SDS011;53460;39.612;8.822;2023-03-17T09:42:36;6.47;;;1.67;;
66603;SDS011;53460;39.612;8.822;2023-03-17T09:49:53;4.85;;;1.80;;
66603;SDS011;53460;39.612;8.822;2023-03-17T09:52:30;2.95;;;1.17;;
66603;SDS011;53460;39.612;8.822;2023-03-17T09:54:56;4.88;;;1.40;;
66603;SDS011;53460;39.612;8.822;2023-03-17T09:57:26;3.50;;;1.90;;
66603;SDS011;53460;39.612;8.822;2023-03-17T10:00:00;3.90;;;1.20;;
66603;SDS011;53460;39.612;8.822;2023-03-17T10:02:33;4.50;;;1.55;;
66603;SDS011;53460;39.612;8.822;2023-03-17T10:05:00;3.08;;;1.50;;
66603;SDS011;53460;39.612;8.822;2023-03-17T10:07:39;3.10;;;1.77;;
66603;SDS011;53460;39.612;8.822;2023-03-17T10:10:13;2.00;;;1.55;;
66603;SDS011;53460;39.612;8.822;2023-03-17T10:15:20;7.43;;;1.95;;
66603;SDS011;53460;39.612;8.822;2023-03-17T10:20:16;4.57;;;1.63;;
66603;SDS011;53460;39.612;8.822;2023-03-17T10:22:50;4.40;;;1.58;;
66603;SDS011;53460;39.612;8.822;2023-03-17T10:25:18;4.45;;;1.80;;
66603;SDS011;53460;39.612;8.822;2023-03-17T10:27:50;7.57;;;1.70;;
66603;SDS011;53460;39.612;8.822;2023-03-17T10:30:18;2.20;;;1.85;;
66603;SDS011;53460;39.612;8.822;2023-03-17T10:32:44;2.72;;;1.92;;
66603;SDS011;53460;39.612;8.822;2023-03-17T10:35:10;11.98;;;1.98;;
66603;SDS011;53460;39.612;8.822;2023-03-17T10:37:36;5.70;;;1.80;;
66603;SDS011;53460;39.612;8.822;2023-03-17T10:40:02;1.92;;;1.55;;
66603;SDS011;53460;39.612;8.822;2023-03-17T10:42:29;7.28;;;1.75;;
66603;SDS011;53460;39.612;8.822;2023-03-17T10:47:38;2.58;;;1.33;;
66603;SDS011;53460;39.612;8.822;2023-03-17T10:50:21;3.30;;;1.00;;
66603;SDS011;53460;39.612;8.822;2023-03-17T10:55:14;5.85;;;1.30;;
66603;SDS011;53460;39.612;8.822;2023-03-17T10:57:39;2.88;;;0.93;;
66603;SDS011;53460;39.612;8.822;2023-03-17T11:00:15;2.47;;;1.13;;
66603;SDS011;53460;39.612;8.822;2023-03-17T11:02:50;2.83;;;1.23;;
66603;SDS011;53460;39.612;8.822;2023-03-17T11:05:18;1.67;;;1.05;;
66603;SDS011;53460;39.612;8.822;2023-03-17T11:07:44;5.18;;;2.47;;
66603;SDS011;53460;39.612;8.822;2023-03-17T11:10:31;2.67;;;1.55;;
66603;SDS011;53460;39.612;8.822;2023-03-17T11:12:58;1.73;;;1.17;;
66603;SDS011;53460;39.612;8.822;2023-03-17T11:15:48;4.57;;;1.20;;
66603;SDS011;53460;39.612;8.822;2023-03-17T11:18:18;1.90;;;1.20;;
66603;SDS011;53460;39.612;8.822;2023-03-17T11:20:52;6.63;;;1.73;;
66603;SDS011;53460;39.612;8.822;2023-03-17T11:23:25;4.93;;;1.40;;
66603;SDS011;53460;39.612;8.822;2023-03-17T11:26:00;4.28;;;1.30;;
66603;SDS011;53460;39.612;8.822;2023-03-17T11:28:28;5.78;;;1.05;;
66603;SDS011;53460;39.612;8.822;2023-03-17T11:30:58;3.63;;;0.98;;
66603;SDS011;53460;39.612;8.822;2023-03-17T11:35:55;2.08;;;0.88;;
66603;SDS011;53460;39.612;8.822;2023-03-17T11:48:45;5.47;;;1.75;;
66603;SDS011;53460;39.612;8.822;2023-03-17T11:56:55;2.28;;;1.50;;
66603;SDS011;53460;39.612;8.822;2023-03-17T12:07:27;4.28;;;1.35;;
66603;SDS011;53460;39.612;8.822;2023-03-17T12:09:57;7.18;;;1.77;;
66603;SDS011;53460;39.612;8.822;2023-03-17T12:12:27;6.28;;;1.58;;
66603;SDS011;53460;39.612;8.822;2023-03-17T12:14:54;4.47;;;1.30;;
66603;SDS011;53460;39.612;8.822;2023-03-17T12:17:22;3.42;;;1.27;;
66603;SDS011;53460;39.612;8.822;2023-03-17T12:19:58;7.13;;;1.48;;
66603;SDS011;53460;39.612;8.822;2023-03-17T12:22:27;3.10;;;0.95;;
66603;SDS011;53460;39.612;8.822;2023-03-17T12:27:23;4.95;;;1.60;;
66603;SDS011;53460;39.612;8.822;2023-03-17T12:29:56;6.38;;;1.20;;
66603;SDS011;53460;39.612;8.822;2023-03-17T12:34:54;3.13;;;1.13;;
66603;SDS011;53460;39.612;8.822;2023-03-17T12:37:21;2.40;;;1.00;;
66603;SDS011;53460;39.612;8.822;2023-03-17T12:39:51;4.47;;;1.42;;
66603;SDS011;53460;39.612;8.822;2023-03-17T12:43:07;4.20;;;1.10;;
66603;SDS011;53460;39.612;8.822;2023-03-17T12:55:10;1.88;;;1.20;;
66603;SDS011;53460;39.612;8.822;2023-03-17T12:57:46;4.10;;;1.23;;
66603;SDS011;53460;39.612;8.822;2023-03-17T13:02:44;4.85;;;1.13;;
66603;SDS011;53460;39.612;8.822;2023-03-17T13:05:13;8.98;;;1.38;;
66603;SDS011;53460;39.612;8.822;2023-03-17T13:07:45;4.35;;;1.30;;
66603;SDS011;53460;39.612;8.822;2023-03-17T13:15:19;6.25;;;1.05;;
66603;SDS011;53460;39.612;8.822;2023-03-17T13:17:45;2.45;;;0.85;;
66603;SDS011;53460;39.612;8.822;2023-03-17T13:20:13;5.20;;;1.08;;
66603;SDS011;53460;39.612;8.822;2023-03-17T13:22:40;2.72;;;1.00;;
66603;SDS011;53460;39.612;8.822;2023-03-17T13:25:27;2.40;;;1.00;;
66603;SDS011;53460;39.612;8.822;2023-03-17T13:27:59;4.75;;;1.00;;
66603;SDS011;53460;39.612;8.822;2023-03-17T13:30:50;3.95;;;1.00;;
66603;SDS011;53460;39.612;8.822;2023-03-17T13:33:19;2.10;;;0.73;;
66603;SDS011;53460;39.612;8.822;2023-03-17T13:45:48;6.95;;;1.48;;
66603;SDS011;53460;39.612;8.822;2023-03-17T13:48:33;2.42;;;0.98;;
66603;SDS011;53460;39.612;8.822;2023-03-17T13:53:34;1.33;;;1.00;;
66603;SDS011;53460;39.612;8.822;2023-03-17T14:01:26;2.35;;;1.40;;
66603;SDS011;53460;39.612;8.822;2023-03-17T14:03:53;2.08;;;1.20;;
66603;SDS011;53460;39.612;8.822;2023-03-17T14:06:20;1.63;;;1.02;;
66603;SDS011;53460;39.612;8.822;2023-03-17T14:08:51;4.35;;;1.55;;
66603;SDS011;53460;39.612;8.822;2023-03-17T14:11:28;1.50;;;1.10;;
66603;SDS011;53460;39.612;8.822;2023-03-17T14:14:07;2.63;;;1.30;;
66603;SDS011;53460;39.612;8.822;2023-03-17T14:19:21;3.92;;;1.52;;
66603;SDS011;53460;39.612;8.822;2023-03-17T14:21:47;1.63;;;1.08;;
66603;SDS011;53460;39.612;8.822;2023-03-17T14:24:20;3.40;;;1.17;;
66603;SDS011;53460;39.612;8.822;2023-03-17T14:26:46;1.88;;;1.17;;
66603;SDS011;53460;39.612;8.822;2023-03-17T14:29:13;2.42;;;0.90;;
66603;SDS011;53460;39.612;8.822;2023-03-17T14:31:39;3.38;;;1.00;;
66603;SDS011;53460;39.612;8.822;2023-03-17T14:34:09;1.20;;;1.10;;
66603;SDS011;53460;39.612;8.822;2023-03-17T14:36:36;3.92;;;1.30;;
66603;SDS011;53460;39.612;8.822;2023-03-17T14:39:01;3.03;;;1.10;;
66603;SDS011;53460;39.612;8.822;2023-03-17T14:41:27;3.20;;;1.20;;
66603;SDS011;53460;39.612;8.822;2023-03-17T14:43:56;3.13;;;0.95;;
66603;SDS011;53460;39.612;8.822;2023-03-17T14:46:40;1.85;;;1.00;;
66603;SDS011;53460;39.612;8.822;2023-03-17T14:51:37;2.03;;;1.20;;
66603;SDS011;53460;39.612;8.822;2023-03-17T14:54:04;4.00;;;1.40;;
66603;SDS011;53460;39.612;8.822;2023-03-17T14:56:35;2.72;;;1.05;;
66603;SDS011;53460;39.612;8.822;2023-03-17T14:59:06;2.38;;;1.38;;
66603;SDS011;53460;39.612;8.822;2023-03-17T15:01:36;3.63;;;0.85;;
66603;SDS011;53460;39.612;8.822;2023-03-17T15:07:03;1.90;;;0.85;;
66603;SDS011;53460;39.612;8.822;2023-03-17T15:12:20;3.53;;;1.20;;
66603;SDS011;53460;39.612;8.822;2023-03-17T15:14:43;1.42;;;0.88;;
66603;SDS011;53460;39.612;8.822;2023-03-17T15:17:14;2.63;;;1.25;;
66603;SDS011;53460;39.612;8.822;2023-03-17T15:19:44;2.70;;;0.98;;
66603;SDS011;53460;39.612;8.822;2023-03-17T15:24:49;2.53;;;1.02;;
66603;SDS011;53460;39.612;8.822;2023-03-17T15:27:16;1.83;;;0.63;;
66603;SDS011;53460;39.612;8.822;2023-03-17T15:29:42;4.30;;;1.00;;
66603;SDS011;53460;39.612;8.822;2023-03-17T15:34:36;3.25;;;1.33;;
66603;SDS011;53460;39.612;8.822;2023-03-17T15:37:02;2.03;;;0.93;;
66603;SDS011;53460;39.612;8.822;2023-03-17T15:39:27;4.05;;;0.88;;
66603;SDS011;53460;39.612;8.822;2023-03-17T15:41:53;2.70;;;0.73;;
66603;SDS011;53460;39.612;8.822;2023-03-17T15:44:18;6.20;;;0.88;;
66603;SDS011;53460;39.612;8.822;2023-03-17T15:46:44;2.30;;;0.80;;
66603;SDS011;53460;39.612;8.822;2023-03-17T15:49:10;4.47;;;1.95;;
66603;SDS011;53460;39.612;8.822;2023-03-17T15:51:36;4.28;;;2.05;;
66603;SDS011;53460;39.612;8.822;2023-03-17T15:54:02;4.85;;;0.88;;
66603;SDS011;53460;39.612;8.822;2023-03-17T15:56:27;2.15;;;1.20;;
66603;SDS011;53460;39.612;8.822;2023-03-17T15:58:53;5.95;;;1.77;;
66603;SDS011;53460;39.612;8.822;2023-03-17T16:01:18;5.18;;;3.00;;
66603;SDS011;53460;39.612;8.822;2023-03-17T16:03:44;7.97;;;4.53;;
66603;SDS011;53460;39.612;8.822;2023-03-17T16:06:18;15.98;;;11.88;;
66603;SDS011;53460;39.612;8.822;2023-03-17T16:08:45;13.73;;;9.25;;
66603;SDS011;53460;39.612;8.822;2023-03-17T16:11:17;4.25;;;2.63;;
66603;SDS011;53460;39.612;8.822;2023-03-17T16:13:44;2.90;;;1.50;;
66603;SDS011;53460;39.612;8.822;2023-03-17T16:16:14;4.03;;;1.30;;
66603;SDS011;53460;39.612;8.822;2023-03-17T16:18:41;3.05;;;1.88;;
66603;SDS011;53460;39.612;8.822;2023-03-17T16:21:06;5.68;;;2.60;;
66603;SDS011;53460;39.612;8.822;2023-03-17T16:23:32;2.45;;;1.20;;
66603;SDS011;53460;39.612;8.822;2023-03-17T16:25:58;3.80;;;1.80;;
66603;SDS011;53460;39.612;8.822;2023-03-17T16:28:25;4.07;;;1.70;;
66603;SDS011;53460;39.612;8.822;2023-03-17T16:30:51;11.35;;;7.03;;
66603;SDS011;53460;39.612;8.822;2023-03-17T16:33:21;4.70;;;3.08;;